Details From SBBE - Val De Caes Intl
To SBSL - Marechal Cunha Machado
Flight Number -
Tags generated
Created
Modified
Stats Distance 265 nm / 490 km
Max Altitude 13,200 ft / 4,023 m
Waypoints 5
Social Downloads 0
Likes 0
Share VATSIM

Download

Looking for another format? Having issues loading an existing format? Contact us
Advertisement - Login to hide

Notes

Basic altitude profile: - Ascent Rate: 2500ft/min - Ascent Speed: 250kts - Cruise Altitude: 35000ft - Cruise Speed: 420kts - Descent Rate: 1500ft/min - Descent Speed: 250kts Options: - Use NATs: yes - Use PACOTS: yes - Use low airways: yes - Use high airways: yes

Route

SBBE JANES G677 SLI SBSL

ID Type Via Altitude Latitude Longitude Leg Dist Tot Dist Heading (true) Name
O SBBE APT - 0 ft / 0 m -1.38078˚ -48.47619˚ - 0 nm - Val De Caes Intl
JANES FIX - 13,200 ft / 4,023 m -1.56750˚ -47.83817˚ 39 nm 39 nm 106° / 106° -
SAVIO FIX G677 (AWY-LO) 8,600 ft / 2,621 m -2.40783˚ -44.88117˚ 184 nm 224 nm 106° / 106° -
SLI VOR G677 (AWY-LO) 2,500 ft / 762 m -2.58917˚ -44.24000˚ 39 nm 264 nm 106° / 106° SAO LUIS VOR-DME
O SBSL APT - 0 ft / 0 m -2.58731˚ -44.23638˚ 0 nm 264 nm 63° / 63° Marechal Cunha Machado

Altitude Profile

Advertisement - Login to hide

Weather


0- 5 10 15 20 25 30 35+ Temperature / ° C

Clouds and Precipitation
Forecast for 2017-12-16 12:00 UTC. Updated a minute ago

Ground ~20,000 ft ~40,000 ft Winds

SBBE

Details ICAO SBBE (BEL)
Name Val De Caes Intl
Region Brazil
Timezone America/Belem (UTC-3.0)
Stats Elevation 54 ft / 16 m (AMSL)
Location -1.380776° -48.476189°
Runways 2
Magnetic Variation 20.144° W

METAR

SBBE 160700Z 11002KT CAVOK 25/23 Q1009

Decode

TAF

Not found

Departure Runways

ID Width Length Bearing (true) Bearing (mag) Surface Threshold Offset Overrun Length
02 148 ft / 45 m 6,023 ft / 1,836 m 4.48° 24.62° Asphalt 0 ft / 0 m 194 ft / 59 m
06 148 ft / 45 m 9,215 ft / 2,809 m 45.30° 65.44° Asphalt 0 ft / 0 m 0 ft / 0 m
20 148 ft / 45 m 6,023 ft / 1,836 m 184.48° 204.62° Asphalt 0 ft / 0 m 194 ft / 59 m
24 148 ft / 45 m 9,215 ft / 2,809 m 225.30° 245.44° Asphalt 0 ft / 0 m 197 ft / 60 m

SBSL

Details ICAO SBSL (SLZ)
Name Marechal Cunha Machado
Region Brazil
Timezone America/Fortaleza (UTC-3.0)
Stats Elevation 178 ft / 54 m (AMSL)
Location -2.587308° -44.236384°
Runways 2
Magnetic Variation 20.915° W

METAR

SBSL 160700Z 07005KT 9999 SCT017 SCT100 26/23 Q1010

Decode

TAF

Not found

Destination Runways

ID Width Length Bearing (true) Bearing (mag) Surface Threshold Offset Overrun Length
06 148 ft / 45 m 7,902 ft / 2,409 m 38.74° 59.66° Asphalt 0 ft / 0 m 197 ft / 60 m
09 135 ft / 41 m 4,867 ft / 1,483 m 68.93° 89.85° Asphalt 270 ft / 82 m 185 ft / 56 m
24 148 ft / 45 m 7,902 ft / 2,409 m 218.74° 239.66° Asphalt 0 ft / 0 m 197 ft / 60 m
27 135 ft / 41 m 4,867 ft / 1,483 m 248.93° 269.85° Asphalt 0 ft / 0 m 200 ft / 61 m

Popular Alternatives